Latest Weather Observations for Tasman Island

IDT60901

Issued at 9:11 am EDT Monday 22 December 2014 (issued every 10 minutes, with the page automatically refreshed every 10 minutes)

About weather observations | Map of Hobart area stations | Latest observations for Hobart area | Other Formats
Station Details ID: 094155 Name: TASMAN ISLAND Lat: -43.24 Lon: 148.00 Height: 240.0 m
Data from the previous 72 hours. | See also: Recent months at Tasman Island
Date/Time
EDT
Tmp

°C
App
Tmp
°C
Dew
Point
°C
Rel
Hum
%
Delta-T

°C
Wind Press
QNH
hPa
Press
MSL
hPa
Rain
since
9 am
mm
Dir
 
Spd
km/h
Gust
km/h
Spd
kts
Gust
kts
22/09:00am 12.3 10.9 9.0 80 1.7 E 6 13 3 7 1016.6 1016.5 0.0
22/08:30am 12.7 11.2 9.0 78 1.9 ESE 7 13 4 7 1016.2 1016.1 0.0
22/08:00am 12.7 11.2 8.6 76 2.1 E 6 7 3 4 1016.1 1016.0 0.0
22/07:30am 12.4 11.5 9.1 80 1.7 ESE 4 6 2 3 1016.0 1015.9 0.0
22/07:00am 12.6 11.9 8.7 77 2.0 WNW 2 6 1 3 1015.6 1015.4 0.0
22/06:30am 11.5 10.5 8.7 83 1.4 WSW 4 7 2 4 1015.3 1015.1 0.0
22/06:00am 10.5 9.0 8.4 87 1.0 SSW 6 7 3 4 1014.9 1014.7 0.0
22/05:30am 10.2 8.4 8.1 87 1.0 SSW 7 11 4 6 1014.6 1014.4 0.0
22/05:00am 10.7 8.7 8.8 88 0.9 SSW 9 13 5 7 1014.5 1014.3 0.0
22/04:30am 10.6 8.2 8.5 87 1.0 SSW 11 17 6 9 1014.3 1014.2 0.0
22/04:00am 10.8 8.4 8.7 87 1.0 SSW 11 20 6 11 1014.2 1014.1 0.0
22/03:30am 10.8 7.6 8.4 85 1.2 SSW 15 28 8 15 1014.0 1013.9 0.0
22/03:00am 11.2 5.9 8.4 83 1.4 SW 26 35 14 19 1014.0 1013.9 0.0
22/02:30am 11.3 5.6 9.9 91 0.7 SW 30 41 16 22 1013.9 1013.8 0.0
22/02:00am 11.2 7.1 10.1 93 0.6 SW 22 30 12 16 1014.1 1014.0 0.0
22/01:30am 11.5 9.1 11.3 99 0.1 SSW 15 24 8 13 1014.3 1014.2 0.0
22/01:00am 11.4 8.9 11.2 99 0.1 SSW 15 28 8 15 1014.3 1014.2 0.0
22/12:30am 11.3 8.8 11.1 99 0.1 SSW 15 30 8 16 1014.2 1014.1 0.0
22/12:00am 11.6 7.9 11.4 99 0.1 SSW 22 48 12 26 1013.9 1013.8 0.0
 
Date/Time
EDT
Tmp

°C
App
Tmp
°C
Dew
Point
°C
Rel
Hum
%
Delta-T

°C
Wind Press
QNH
hPa
Press
MSL
hPa
Rain
since
9 am
mm
Dir
 
Spd
km/h
Gust
km/h
Spd
kts
Gust
kts
21/11:35pm 11.8 6.2 11.6 99 0.1 SW 32 52 17 28 1013.6 1013.5 0.0
21/11:30pm 11.8 6.2 11.6 99 0.1 SW 32 46 17 25 1013.6 1013.5 0.0
21/11:18pm 12.5 7.4 12.0 97 0.3 SW 30 50 16 27 1013.5 1013.4 0.0
21/11:14pm 12.7 8.0 11.9 95 0.4 SW 28 50 15 27 1013.4 1013.3 0.0
21/11:00pm 12.9 10.8 11.3 90 0.9 SW 13 32 7 17 1013.5 1013.4 0.0
21/10:30pm 13.0 10.1 11.1 88 1.0 SW 17 39 9 21 1013.5 1013.4 0.0
21/10:00pm 12.9 9.0 10.8 87 1.1 SW 22 43 12 23 1013.4 1013.3 0.0
21/09:30pm 12.7 9.8 10.9 89 1.0 SW 17 32 9 17 1013.0 1012.9 0.0
21/09:00pm 12.5 8.9 11.9 96 0.3 SW 22 39 12 21 1012.4 1012.3 0.0
21/08:30pm 13.6 11.1 11.1 85 1.3 S 15 26 8 14 1012.3 1012.2 0.0
21/08:00pm 14.0 11.4 10.8 81 1.7 SSE 15 20 8 11 1012.0 1011.8 0.0
21/07:30pm 14.7 11.3 9.3 70 2.8 SSE 17 26 9 14 1011.5 1011.3 0.0
21/07:00pm 14.9 12.9 10.3 74 2.4 SSE 11 17 6 9 1011.2 1011.0 0.0
21/06:30pm 14.8 11.8 10.8 77 2.1 SSE 17 28 9 15 1010.8 1010.6 0.0
21/06:00pm 14.7 10.9 9.9 73 2.5 S 20 33 11 18 1010.9 1010.7 0.0
21/05:30pm 15.2 11.7 12.3 83 1.6 SSW 22 33 12 18 1010.6 1010.4 0.0
21/05:00pm 18.4 17.6 13.9 75 2.6 N 11 19 6 10 1010.5 1010.3 0.0
21/04:30pm 17.5 15.4 13.6 78 2.2 N 17 32 9 17 1010.6 1010.4 0.0
21/04:00pm 16.2 11.2 13.9 86 1.3 N 33 48 18 26 1010.4 1010.2 0.0
21/03:30pm 15.9 9.0 13.9 88 1.1 N 43 52 23 28 1010.2 1010.0 0.0
21/03:00pm 16.6 10.1 13.9 84 1.5 N 41 52 22 28 1010.3 1010.1 0.0
21/02:30pm 15.4 9.0 13.1 86 1.3 N 39 50 21 27 1010.6 1010.4 0.0
21/02:00pm 16.1 9.6 12.8 81 1.9 N 39 46 21 25 1011.0 1010.8 0.0
21/01:30pm 15.8 9.5 12.4 80 1.9 N 37 46 20 25 1011.4 1011.2 0.0
21/01:00pm 15.9 10.0 12.5 80 1.9 N 35 46 19 25 1011.6 1011.4 0.0
21/12:30pm 16.0 10.0 12.0 77 2.2 N 35 48 19 26 1011.9 1011.7 0.0
21/12:00pm 15.3 9.9 12.2 82 1.7 NNE 32 43 17 23 1012.1 1011.9 0.0
21/11:30am 15.2 10.5 12.0 81 1.8 N 28 37 15 20 1012.7 1012.6 0.0
21/11:00am 14.7 9.4 11.3 80 1.8 N 30 37 16 20 1012.7 1012.6 0.0
21/10:30am 15.1 10.0 10.7 75 2.4 N 28 37 15 20 1013.4 1013.3 0.0
21/10:00am 14.8 10.2 11.0 78 2.0 NNE 26 35 14 19 1013.7 1013.6 0.0
21/09:30am 15.0 11.3 11.4 79 2.0 N 22 33 12 18 1014.3 1014.2 0.0
21/09:00am 14.1 9.6 11.3 83 1.5 N 26 33 14 18 1014.5 1014.3 0.2
21/08:30am 12.5 7.9 10.9 90 0.8 N 26 35 14 19 1014.2 1014.1 0.2
21/08:00am 12.1 7.4 10.8 92 0.7 N 26 32 14 17 1014.1 1014.0 0.2
21/07:30am 12.2 7.5 10.8 91 0.7 N 26 33 14 18 1014.2 1014.1 0.2
21/07:00am 11.8 8.2 9.7 87 1.1 NNE 19 24 10 13 1014.5 1014.3 0.2
21/06:30am 11.5 8.5 9.2 86 1.2 NNE 15 20 8 11 1015.1 1014.9 0.2
21/06:00am 11.1 9.2 9.2 88 1.0 N 9 11 5 6 1015.7 1015.5 0.2
21/05:30am 11.0 9.4 8.9 87 1.1 NNW 7 11 4 6 1015.2 1015.0 0.2
21/05:00am 10.8 9.3 9.1 89 0.9 NNW 7 13 4 7 1014.8 1014.6 0.2
21/04:30am 10.7 8.4 9.0 89 0.9 NNE 11 17 6 9 1014.2 1014.1 0.2
21/04:00am 10.6 8.7 8.9 89 0.9 NNE 9 13 5 7 1014.3 1014.2 0.2
21/03:30am 10.5 9.1 8.8 89 0.8 N 6 7 3 4 1014.5 1014.3 0.2
21/03:00am 10.0 8.5 8.4 90 0.8 N 6 7 3 4 1014.8 1014.6 0.2
21/02:30am 10.4 9.2 8.2 86 1.1 NNE 4 6 2 3 1014.9 1014.7 0.2
21/02:00am 10.7 9.9 8.1 84 1.3 NNW 2 4 1 2 1015.2 1015.0 0.2
21/01:30am 10.6 9.4 8.0 84 1.3 WNW 4 6 2 3 1015.5 1015.3 0.2
21/01:00am 10.1 8.5 8.2 88 0.9 SSW 6 9 3 5 1015.8 1015.7 0.2
21/12:30am 10.4 9.6 8.2 86 1.1 SSW 2 4 1 2 1015.9 1015.8 0.2
21/12:00am 10.2 8.5 8.3 88 0.9 SSW 7 13 4 7 1016.0 1015.9 0.2
 
Date/Time
EDT
Tmp

°C
App
Tmp
°C
Dew
Point
°C
Rel
Hum
%
Delta-T

°C
Wind Press
QNH
hPa
Press
MSL
hPa
Rain
since
9 am
mm
Dir
 
Spd
km/h
Gust
km/h
Spd
kts
Gust
kts
20/11:30pm 10.5 7.8 9.1 91 0.7 SSW 13 19 7 10 1015.9 1015.8 0.2
20/11:00pm 10.6 7.8 8.7 88 0.9 SSW 13 19 7 10 1016.1 1016.0 0.2
20/10:30pm 10.5 7.8 8.9 90 0.8 SSW 13 20 7 11 1016.0 1015.9 0.2
20/10:00pm 10.7 7.7 9.1 90 0.8 SSW 15 22 8 12 1016.2 1016.1 0.2
20/09:30pm 10.6 6.4 8.4 86 1.1 SSW 20 32 11 17 1015.6 1015.4 0.2
20/09:00pm 10.7 5.9 8.8 88 0.9 SSW 24 35 13 19 1015.5 1015.3 0.2
20/08:30pm 11.1 5.7 8.0 81 1.5 SSW 26 37 14 20 1015.4 1015.2 0.2
20/08:00pm 11.4 7.0 9.0 85 1.2 SSW 22 35 12 19 1015.1 1014.9 0.2
20/07:47pm 11.3 5.3 8.5 83 1.4 SSW 30 48 16 26 1014.9 1014.7 0.2
20/07:30pm 11.2 3.7 9.5 89 0.9 SSW 39 54 21 29 1014.3 1014.2 0.2
20/07:01pm 11.7 6.0 9.9 89 0.9 SSW 30 48 16 26 1013.9 1013.8 0.2
20/07:00pm 11.7 6.4 9.9 89 0.9 SSW 28 44 15 24 1014.0 1013.9 0.2
20/06:48pm 11.9 5.7 9.3 84 1.3 SSW 32 52 17 28 1013.7 1013.6 0.2
20/06:30pm 12.2 6.0 9.2 82 1.5 SSW 32 44 17 24 1013.6 1013.5 0.2
20/06:04pm 12.4 6.9 9.1 80 1.7 SSW 28 48 15 26 1013.6 1013.5 0.2
20/06:00pm 12.4 7.3 9.2 81 1.6 SSW 26 46 14 25 1013.5 1013.4 0.2
20/05:38pm 13.0 7.5 9.1 77 2.0 SSW 28 46 15 25 1013.4 1013.3 0.2
20/05:30pm 13.0 7.6 9.4 79 1.9 SSW 28 46 15 25 1013.3 1013.2 0.2
20/05:16pm 13.2 7.9 10.0 81 1.7 SSW 28 48 15 26 1013.3 1013.2 0.2
20/05:00pm 13.3 8.0 9.7 79 1.9 SSW 28 44 15 24 1013.3 1013.2 0.2
20/04:33pm 13.4 6.3 9.5 77 2.0 SW 37 57 20 31 1013.0 1012.9 0.2
20/04:30pm 13.3 5.8 9.5 78 2.0 SW 39 57 21 31 1013.0 1012.9 0.2
20/04:00pm 13.5 7.6 10.3 81 1.7 SSW 32 52 17 28 1012.8 1012.7 0.2
20/03:30pm 13.8 6.4 10.0 78 2.0 SW 39 57 21 31 1012.8 1012.7 0.2
20/03:02pm 14.3 7.3 9.9 75 2.3 SW 37 57 20 31 1012.7 1012.6 0.2
20/03:00pm 14.1 7.0 9.5 74 2.4 SW 37 56 20 30 1012.7 1012.6 0.2
20/02:30pm 13.8 5.6 9.8 77 2.1 SW 43 67 23 36 1012.6 1012.5 0.2
20/02:00pm 13.8 5.9 10.8 82 1.6 SW 43 63 23 34 1012.5 1012.4 0.2
20/01:31pm 13.4 7.6 10.9 85 1.3 SW 32 50 17 27 1012.6 1012.5 0.2
20/01:30pm 13.4 7.5 11.1 86 1.2 SW 33 50 18 27 1012.6 1012.5 0.2
20/01:00pm 14.4 8.2 11.4 82 1.6 SW 35 50 19 27 1012.5 1012.4 0.2
20/12:39pm 14.3 9.4 11.3 82 1.6 SW 28 50 15 27 1012.3 1012.2 0.2
20/12:30pm 14.0 9.1 11.3 84 1.5 SW 28 44 15 24 1012.3 1012.2 0.2
20/12:13pm 13.5 7.8 11.0 85 1.3 SW 32 52 17 28 1012.2 1012.0 0.2
20/12:00pm 13.5 7.8 11.2 86 1.2 SW 32 48 17 26 1012.3 1012.2 0.2
20/11:57am 13.5 8.5 11.0 85 1.3 SW 28 46 15 25 1012.3 1012.2 0.2
20/11:30am 14.6 11.3 11.7 83 1.6 SW 20 37 11 20 1012.3 1012.2 0.2
20/11:00am 14.7 12.8 11.7 82 1.6 WSW 13 22 7 12 1012.2 1012.0 0.2
20/10:30am 14.0 13.5 12.2 89 1.0 W 6 19 3 10 1012.1 1011.9 0.2
20/10:00am 13.4 13.0 13.1 98 0.2 W 7 15 4 8 1012.0 1011.8 0.2
20/09:30am 11.9 11.3 11.6 98 0.2 WSW 6 19 3 10 1011.9 1011.7 0.2
20/09:00am 12.2 11.2 11.1 93 0.6 W 7 19 4 10 1011.7 1011.5 0.2
20/08:30am 12.4 11.3 10.5 88 1.0 W 7 30 4 16 1011.4 1011.2 0.2
20/08:00am 13.4 12.0 8.9 74 2.3 WNW 6 28 3 15 1010.9 1010.7 0.2
20/07:30am 13.5 12.1 8.8 73 2.4 WSW 6 20 3 11 1010.4 1010.2 0.2
20/07:00am 13.8 9.8 8.2 69 2.8 WNW 19 35 10 19 1009.8 1009.7 0.2
20/06:30am 13.1 8.8 7.8 70 2.6 NW 20 32 11 17 1009.7 1009.6 0.2
20/06:00am 12.6 8.2 7.5 71 2.5 NW 20 33 11 18 1009.7 1009.6 0.2
20/05:30am 12.4 6.4 7.1 70 2.6 NW 28 39 15 21 1009.7 1009.6 0.2
20/05:00am 12.4 5.6 7.1 70 2.6 NW 32 44 17 24 1009.5 1009.4 0.2
20/04:30am 11.9 5.4 6.6 70 2.6 NW 30 46 16 25 1009.5 1009.4 0.2
20/04:21am 11.9 5.8 6.6 70 2.6 NW 28 46 15 25 1009.5 1009.4 0.2
20/04:00am 11.8 5.3 6.5 70 2.5 NW 30 43 16 23 1009.6 1009.5 0.2
20/03:30am 11.4 6.0 6.3 71 2.4 NW 24 37 13 20 1010.1 1009.9 0.2
20/03:00am 11.3 5.9 6.2 71 2.4 NW 24 41 13 22 1010.5 1010.3 0.2
20/02:30am 10.7 5.3 6.5 75 2.0 NW 24 37 13 20 1011.0 1010.8 0.2
20/02:00am 11.0 6.5 6.2 72 2.3 NW 19 26 10 14 1011.4 1011.2 0.2
20/01:30am 11.4 5.9 5.9 69 2.6 NW 24 35 13 19 1011.9 1011.7 0.2
20/01:00am 11.7 6.4 5.1 64 3.1 NW 22 30 12 16 1012.1 1011.9 0.2
20/12:30am 11.6 6.4 5.7 67 2.8 NW 22 32 12 17 1012.4 1012.3 0.2
20/12:00am 11.6 8.2 6.1 69 2.6 NW 13 19 7 10 1012.8 1012.7 0.2
 
Date/Time
EDT
Tmp

°C
App
Tmp
°C
Dew
Point
°C
Rel
Hum
%
Delta-T

°C
Wind Press
QNH
hPa
Press
MSL
hPa
Rain
since
9 am
mm
Dir
 
Spd
km/h
Gust
km/h
Spd
kts
Gust
kts
19/11:30pm 11.9 7.3 5.5 65 3.0 NW 19 26 10 14 1013.2 1013.1 0.2
19/11:00pm 11.6 7.7 6.9 73 2.3 NNW 17 28 9 15 1013.3 1013.2 0.2
19/10:30pm 11.6 7.7 7.1 74 2.2 NNW 17 24 9 13 1013.6 1013.5 0.2
19/10:00pm 11.6 7.7 6.9 73 2.3 NNW 17 24 9 13 1014.0 1013.9 0.2
19/09:30pm 11.7 6.9 7.2 74 2.2 N 22 30 12 16 1013.7 1013.6 0.2
19/09:00pm 11.9 7.3 6.4 69 2.6 NNW 20 30 11 16 1013.5 1013.4 0.2
19/08:30pm 12.2 7.0 5.6 64 3.1 NW 22 32 12 17 1013.1 1013.0 0.2
19/08:00pm 12.5 9.8 5.7 63 3.2 NNW 9 32 5 17 1013.0 1012.9 0.2
19/07:30pm 11.6 7.4 7.3 75 2.1 SW 19 37 10 20 1012.9 1012.8 0.2
19/07:00pm 11.8 7.3 7.1 73 2.3 SW 20 50 11 27 1012.7 1012.6 0.2
19/06:30pm 11.6 6.2 6.3 70 2.5 SSW 24 43 13 23 1012.4 1012.3 0.2
19/06:01pm 11.6 5.4 6.3 70 2.5 SSW 28 46 15 25 1012.3 1012.2 0.2
19/06:00pm 11.7 5.2 6.4 70 2.5 SW 30 46 16 25 1012.4 1012.3 0.2
19/05:30pm 11.6 4.4 6.1 69 2.6 SW 33 52 18 28 1012.3 1012.2 0.2
19/05:00pm 12.6 5.4 5.8 63 3.2 SW 33 56 18 30 1012.2 1012.0 0.2
19/04:30pm 12.7 5.1 5.6 62 3.4 SW 35 57 19 31 1012.4 1012.3 0.2
19/04:01pm 12.7 5.4 5.6 62 3.4 SW 33 52 18 28 1012.4 1012.3 0.2
19/04:00pm 12.7 5.0 5.4 61 3.4 SW 35 52 19 28 1012.4 1012.3 0.2
19/03:35pm 13.2 7.0 6.3 63 3.3 SW 28 50 15 27 1012.4 1012.3 0.2
19/03:30pm 13.1 6.6 6.5 64 3.2 SW 30 46 16 25 1012.4 1012.3 0.2
19/03:00pm 12.4 6.5 5.8 64 3.1 SW 26 43 14 23 1012.2 1012.0 0.2
19/02:47pm 12.1 5.2 4.6 60 3.5 SW 30 50 16 27 1012.0 1011.8 0.2
19/02:44pm 12.3 5.1 5.2 62 3.3 SW 32 50 17 27 1012.0 1011.8 0.2
19/02:30pm 12.7 8.1 5.8 63 3.3 SW 19 30 10 16 1012.2 1012.0 0.2
19/02:00pm 13.3 9.1 8.2 71 2.6 SW 20 35 11 19 1012.3 1012.2 0.2
19/01:30pm 13.3 9.8 7.1 66 3.0 SW 15 30 8 16 1012.2 1012.0 0.2
19/01:00pm 12.1 8.5 6.8 70 2.6 SW 15 30 8 16 1012.3 1012.2 0.2
19/12:30pm 10.7 4.4 5.7 71 2.3 SW 28 50 15 27 1011.8 1011.6 0.0
19/12:03pm 11.2 4.2 6.1 71 2.4 SW 32 54 17 29 1011.8 1011.6 0.0
19/12:00pm 11.5 4.8 5.6 67 2.8 SW 30 46 16 25 1011.8 1011.6 0.0
19/11:58am 11.4 5.1 5.5 67 2.8 SW 28 46 15 25 1011.9 1011.7 0.0
19/11:30am 12.2 8.5 6.3 67 2.8 WSW 15 44 8 24 1011.9 1011.7 0.0
19/11:00am 11.7 8.9 5.3 65 3.0 WSW 9 22 5 12 1012.0 1011.8 0.0
19/10:30am 11.4 6.6 5.5 67 2.8 SW 20 41 11 22 1011.6 1011.4 0.0
19/10:00am 11.5 8.9 6.0 69 2.6 SSE 9 33 5 18 1011.7 1011.5 0.0
19/09:30am 10.5 6.6 5.3 70 2.4 W 15 28 8 15 1011.8 1011.6 0.0

Latest Capital City Observations: Canberra | Sydney | Melbourne | Brisbane | Adelaide | Perth | Hobart | Darwin

Other Formats:

Comma delimited format used in spreadsheet applications
http://www.bom.gov.au/fwo/IDT60901/IDT60901.95986.axf

JavaScript Object Notation format (JSON) in row-major order
http://www.bom.gov.au/fwo/IDT60901/IDT60901.95986.json